Terminal Aerodrome Forecast
Issued by NWS Portland, ME

Home | Current Version | Previous Version | Text Only | Print | Product List | Glossary On
Versions: 1 2 3 4 5 6 7 8 9 10 11 12 13 14 15 16 17
229
FTUS41 KGYX 221120
TAFCON
TAF
KCON 221120Z 2212/2312 00000KT P6SM SKC
     FM221500 22006KT P6SM SCT250
     FM221900 21009KT P6SM BKN045 BKN090 PROB30 2221/2303 2SM TSRA
      OVC020CB
     FM230300 21009KT 5SM -SHRA OVC045
      TEMPO 2303/2307 2SM SHRA OVC025=

USA.gov is the U.S. government's official web portal to all federal, state and local government web resources and services.